Nearby METAR Reports

 

EGEO - Oban, United Kingdom
Distance from station: SSW 18mi, 30km
Updated: 02/07/2020 15:50
NOT Current
Partly cloudy
Partly cloudy
 Wind from W
Wind: W 14 mph , 22 km/h
Temperature: 14°C
Dew Point: 9°C
Humidity: 72%
Barometer: 1011 hPa
Clouds: Partly cloudy
Visibility: 6 miles , 10 km
Cloud details: Partly cloudy 1067 m
2020/07/02 14:50 EGEO 021450Z 28012KT 9999 SCT035 14/09 Q1011
EGPU - Tiree, United Kingdom
Distance from station: WSW 64mi, 103km
Updated: 08/07/2020 02:20
Few Clouds
Few Clouds
 Wind from NE
Wind: NE 6 mph , 9 km/h
Temperature: 8°C
Wind Chill: 6°C
Dew Point: 7°C
Humidity: 93%
Barometer: 1015 hPa
Clouds: Few Clouds
Visibility: 6 miles , 10 km
Cloud details: Few Clouds 427 m
2020/07/08 01:20 EGPU 080120Z AUTO 04005KT 9999 FEW014/// 08/07 Q1015
EGPF - Glasgow, United Kingdom
Distance from station: SSE 66mi, 107km
Updated: 08/07/2020 02:20
Overcast
Overcast
 Wind from varies
Wind: varies 2 mph , 4 km/h
Temperature: 10°C
Dew Point: 9°C
Humidity: 94%
Barometer: 1015 hPa
Clouds: Overcast
Visibility: 6 miles , 10 km
Cloud details: Overcast 457 m
2020/07/08 01:20 EGPF 080120Z AUTO VRB02KT 9999 OVC015 10/09 Q1015
 
EGPE - Inverness, United Kingdom
Distance from station: NE 71mi, 114km
Updated: 08/07/2020 02:20
Mostly cloudy
Mostly cloudy
 Wind from N
Wind: N 2 mph , 4 km/h
Temperature: 9°C
Dew Point: 7°C
Humidity: 87%
Barometer: 1017 hPa
Clouds: Mostly cloudy
Visibility: 6 miles , 10 km
Cloud details: Mostly cloudy 701 m
2020/07/08 01:20 EGPE 080120Z AUTO 36002KT 9999 BKN023/// 09/07 Q1017
EGPI - Islay/Port Ellen, United Kingdom
Distance from station: SSW 81mi, 131km
Updated: 08/07/2020 02:20
Clear
Clear
 Wind from varies
Wind: varies 1 mph , 2 km/h
Temperature: 7°C
Dew Point: 6°C
Humidity: 93%
Barometer: 1015 hPa
Clouds: Clear
Visibility: 6 miles , 10 km
2020/07/08 01:20 EGPI 080120Z AUTO VRB01KT 9999 NCD 07/06 Q1015
EGPN - Dundee/Riverside, United Kingdom
Distance from station: E 86mi, 138km
Updated: 07/07/2020 20:50
NOT Current
Nearby showers, Partly cloudy
Nearby showers, Partly cloudy
 Wind from E
Wind: E 10 mph , 17 km/h
Temperature: 13°C
Dew Point: 9°C
Humidity: 77%
Barometer: 1015 hPa
Summary: Nearby Showers
Clouds: Partly cloudy
Visibility: 6 miles , 10 km
Cloud details: Few Clouds 610 m
Partly cloudy 1250 m
2020/07/07 19:50 EGPN 071950Z 09009KT 9999 VCSH FEW020 SCT041 13/09 Q1015
 
EGPK - Prestwick, United Kingdom
Distance from station: SSE 88mi, 141km
Updated: 08/07/2020 01:50
Few Clouds
Few Clouds
 Wind from calm
Wind: Calm
Temperature: 9°C
Dew Point: 8°C
Humidity: 94%
Barometer: 1015 hPa
Clouds: Few Clouds
Visibility: 6 miles , 10 km
Cloud details: Few Clouds 975 m
2020/07/08 00:50 EGPK 080050Z 00000KT 9999 FEW032 09/08 Q1015
EGPH - Edinburgh, United Kingdom
Distance from station: SE 89mi, 143km
Updated: 08/07/2020 02:20
Mostly cloudy
Mostly cloudy
 Wind from NE
Wind: NE 9 mph , 15 km/h
Temperature: 11°C
Dew Point: 11°C
Humidity: 100%
Barometer: 1015 hPa
Clouds: Mostly cloudy
Visibility: 6 miles , 10 km
Cloud details: Mostly cloudy 244 m
2020/07/08 01:20 EGPH 080120Z 04008KT 9999 BKN008 11/11 Q1015
EGQK - RAF Kinloss, United Kingdom
Distance from station: NE 90mi, 144km
Updated: 08/07/2020 01:50
Mostly cloudy
Mostly cloudy
 Wind from ENE
Wind: ENE 3 mph , 6 km/h
Temperature: 10°C
Dew Point: 6°C
Humidity: 76%
Barometer: 1016 hPa
Clouds: Mostly cloudy
Visibility: 6 miles , 10 km
Cloud details: Mostly cloudy 732 m
Mostly cloudy 1067 m
2020/07/08 00:50 EGQK 080050Z AUTO 07003KT 9999 BKN024/// BKN035/// 10/06 Q1016
 
EGEC - Campbeltown, United Kingdom
Distance from station: S 90mi, 145km
Updated: 07/07/2020 10:20
NOT Current
Few Clouds
Few Clouds
 Wind from WSW
Wind: WSW 10 mph , 17 km/h
Temperature: 13°C
Dew Point: 10°C
Humidity: 82%
Barometer: 1017 hPa
Clouds: Few Clouds
Visibility: 6 miles , 10 km
Cloud details: Few Clouds 396 m
2020/07/07 09:20 EGEC 070920Z 25009KT 220V280 9999 FEW013 13/10 Q1017
EGQA - Tain Range, United Kingdom
Distance from station: NNE 91mi, 146km
Updated: 07/07/2020 21:50
NOT Current
Light rain, Showers, Mostly cloudy
Light rain, Showers, Mostly cloudy
 Wind from ENE
Wind: ENE 5 mph , 7 km/h
Summary: Light rain, Showers
Clouds: Mostly cloudy
Visibility: 6 miles , 10 km
Cloud details: Mostly cloudy 1067 m
2020/07/07 20:50 EGQA 072050Z 06004KT 9999 -SHRA BKN035 11/// Q1017 RMK BLU
EGQL - RAF Leuchars, United Kingdom
Distance from station: ESE 93mi, 149km
Updated: 08/07/2020 01:50
Mostly cloudy
Mostly cloudy
 Wind from ENE
Wind: ENE 8 mph , 13 km/h
Temperature: 11°C
Dew Point: 9°C
Humidity: 88%
Barometer: 1016 hPa
Clouds: Mostly cloudy
Visibility: 6 miles , 10 km
Cloud details: Mostly cloudy 1036 m
2020/07/08 00:50 EGQL 080050Z 07007KT 9999 BKN034 11/09 Q1016 RMK BLU
 
EGPL - Benbecula, United Kingdom
Distance from station: WNW 96mi, 154km
Updated: 08/07/2020 02:20
Few Clouds
Few Clouds
 Wind from NE
Wind: NE 3 mph , 6 km/h
Temperature: 7°C
Dew Point: 6°C
Humidity: 93%
Barometer: 1016 hPa
Clouds: Few Clouds
Visibility: 6 miles , 10 km
Cloud details: Few Clouds 610 m
2020/07/08 01:20 EGPL 080120Z 04003KT 9999 FEW020 07/06 Q1016
EGQS - RAF Lossiemouth, United Kingdom
Distance from station: NE 99mi, 160km
Updated: 08/07/2020 01:50
Mostly cloudy
Mostly cloudy
 Wind from NNE
Wind: NNE 7 mph , 11 km/h
Temperature: 10°C
Wind Chill: 8°C
Dew Point: 6°C
Humidity: 76%
Barometer: 1016 hPa
Clouds: Mostly cloudy
Visibility: 6 miles , 10 km
Cloud details: Mostly cloudy 1006 m
2020/07/08 00:50 EGQS 080050Z 02006KT 9999 BKN033 10/06 Q1016 RMK BLU
EGPO - Stornoway, United Kingdom
Distance from station: NNW 111mi, 179km
Updated: 08/07/2020 02:20
Clear
Clear
 Wind from calm
Wind: Calm
Temperature: 5°C
Dew Point: 4°C
Humidity: 93%
Barometer: 1016 hPa
Clouds: Clear
Visibility: 6 miles , 10 km
2020/07/08 01:20 EGPO 080120Z AUTO 00000KT 9999 NCD 05/04 Q1016
 
EGPD - Aberdeen/Dyce, United Kingdom
Distance from station: ENE 118mi, 190km
Updated: 08/07/2020 02:20
Mostly cloudy
Mostly cloudy
 Wind from varies
Wind: varies 2 mph , 4 km/h
Temperature: 9°C
Dew Point: 6°C
Humidity: 82%
Barometer: 1016 hPa
Clouds: Mostly cloudy
Visibility: 6 miles , 10 km
Cloud details: Mostly cloudy 884 m
2020/07/08 01:20 EGPD 080120Z AUTO VRB02KT 9999 BKN029 09/06 Q1016 NOSIG
EGAE - Eglinton/Londond, United Kingdom
Distance from station: SSW 138mi, 222km
Updated: 07/07/2020 20:50
NOT Current
Light drizzle, Mostly cloudy
Light drizzle, Mostly cloudy
 Wind from NE
Wind: NE 12 mph , 19 km/h
Temperature: 13°C
Dew Point: 11°C
Humidity: 88%
Barometer: 1015 hPa
Summary: Light Drizzle
Clouds: Mostly cloudy
Visibility: 5 miles , 8 km
Cloud details: Few Clouds 305 m
Partly cloudy 610 m
Mostly cloudy 914 m
2020/07/07 19:50 EGAE 071950Z 05010KT 8000 -DZ FEW010 SCT020 BKN030 13/11 Q1015
EGPC - Wick, United Kingdom
Distance from station: NNE 144mi, 232km
Updated: 08/07/2020 02:20
Overcast
Overcast
 Wind from W
Wind: W 5 mph , 7 km/h
Temperature: 7°C
Wind Chill: 6°C
Dew Point: 5°C
Humidity: 87%
Barometer: 1016 hPa
Clouds: Overcast
Visibility: 6 miles , 10 km
Cloud details: Mostly cloudy 762 m
Overcast 884 m
2020/07/08 01:20 EGPC 080120Z AUTO 26004KT 9999 BKN025/// OVC029/// 07/05 Q1016

Metar display script from Saratoga-Weather.org